Terminal Aerodrome Forecast
Issued by NWS

Home | Current Version | Previous Version | Text Only | Print | Product List | Glossary On
Versions: 1 2 3 4 5 6 7 8 9 10 11 12 13 14 15 16
332
FTUS46 KPDT 120832 AAB
TAFRDM
TAF AMD
KRDM 120832Z 1209/1306 VRB04KT 1SM BR BKN002
     FM121600 17005KT 4SM BR SCT002 BKN050
     FM121900 29008KT P6SM -SHRA OVC050=

USA.gov is the U.S. government's official web portal to all federal, state and local government web resources and services.